KLOT/LOT METAR and TAF weather

Enter ICAO airport designator
Station Type Date Time Source
KLOT METAR 2020/03/31 10:15 UTC NOAA

KLOT 311015Z AUTO 04007KT 10SM OVC060 02/00 A3007 RMK AO2 T00240000


Station Type Date Time Source
KLOT Decoded METAR 2020/03/31 10:15 UTC NOAA

Chicago/Romeoville, Lewis University Airport, IL, United States (KLOT) 41-36-30N 088-05-39W
Mar 31, 2020 - 06:15 AM EDT / 2020.03.31 1015 UTC
Wind: from the NE (040 degrees) at 8 MPH (7 KT):0
Visibility: 10 mile(s):0
Sky conditions: overcast
Temperature: 36.3 F (2.4 C)
Dew Point: 32.0 F (0.0 C)
Relative Humidity: 84%
Pressure (altimeter): 30.07 in. Hg (1018 hPa)
ob: KLOT 311015Z AUTO 04007KT 10SM OVC060 02/00 A3007 RMK AO2 T00240000
cycle: 10

Station Type Date Time Source
KLOT TAF UTC NOAA

Error!

Example: see airport list